Buoy 60728

sailwx.info

Track history (hours):
 
Tides and Currents Weather Stations Pressure Air Temp Water Temp Dewpoint Dewpoint Depression Visibility Wind Speed Wind Dir Waves Ship Positions

Min Long Yu F60728

Last reported at 2017-Mar-25 08:28 UTC. Time now 2017-Mar-30 02:35 UTC.
Position N 37°56' E 120°45'.

Length 22 m.

Type: Fishing. MMSI: 412445171.

Date/timePositionNaut miles runAvg speedWind from/ knotsBaromVisibWave heightAir tempDewpointWater temp
2017-Mar-25 08:28N 37°56' E 120°45'9 0.9
2017-Mar-24 22:28N 38°05' E 120°50'7 7.4
2017-Mar-24 21:33N 37°58' E 120°50'8 7.6
2017-Mar-24 20:33N 37°51' E 120°45'2 0.1
2017-Mar-23 12:34N 37°50' E 120°44'7 7.1
2017-Mar-23 11:32N 37°56' E 120°49'8 7.4
2017-Mar-23 10:31N 38°03' E 120°49'2 0.2
2017-Mar-22 22:06N 38°05' E 120°50'4 7.4
2017-Mar-22 21:33N 38°01' E 120°50'6 6.3
2017-Mar-22 20:33N 37°55' E 120°49'7 6.7
2017-Mar-22 19:32N 37°50' E 120°44'  
2017-Mar-19 20:33N 24°24' E 117°58'8 7.8
2017-Mar-19 19:33N 24°23' E 118°07'8 8.5
2017-Mar-19 18:33N 24°20' E 118°15'  
2017-Mar-17 10:33N 37°50' E 120°44'7 7.4
2017-Mar-17 09:33N 37°57' E 120°48'82711635.8
2017-Mar-17 09:29N 24°20' E 118°13'8 8.8
2017-Mar-17 08:33N 24°24' E 118°05'6 5.2
2017-Mar-17 07:25N 24°24' E 117°58'83324.6
2017-Mar-15 21:33N 38°04' E 120°50'7 7.3
2017-Mar-15 20:33N 37°57' E 120°49'5 5.3
2017-Mar-15 19:33N 37°52' E 120°45'  
Track history (hours):
 
Tides and Currents Weather Stations Pressure Air Temp Water Temp Dewpoint Dewpoint Depression Visibility Wind Speed Wind Dir Waves Ship Positions

Min Long Yu F60728

Last reported at 2017-Mar-25 08:28 UTC. Time now 2017-Mar-30 02:35 UTC.
Position N 37°56' E 120°45'.

Length 22 m.

Type: Fishing. MMSI: 412445171.

Date/timePositionNaut miles runAvg speedWind from/ knotsBaromVisibWave heightAir tempDewpointWater temp
2017-Mar-25 08:28N 37°56' E 120°45'9 0.9
2017-Mar-24 22:28N 38°05' E 120°50'7 7.4
2017-Mar-24 21:33N 37°58' E 120°50'8 7.6
2017-Mar-24 20:33N 37°51' E 120°45'2 0.1
2017-Mar-23 12:34N 37°50' E 120°44'7 7.1
2017-Mar-23 11:32N 37°56' E 120°49'8 7.4
2017-Mar-23 10:31N 38°03' E 120°49'2 0.2
2017-Mar-22 22:06N 38°05' E 120°50'4 7.4
2017-Mar-22 21:33N 38°01' E 120°50'6 6.3
2017-Mar-22 20:33N 37°55' E 120°49'7 6.7
2017-Mar-22 19:32N 37°50' E 120°44'  
2017-Mar-19 20:33N 24°24' E 117°58'8 7.8
2017-Mar-19 19:33N 24°23' E 118°07'8 8.5
2017-Mar-19 18:33N 24°20' E 118°15'  
2017-Mar-17 10:33N 37°50' E 120°44'7 7.4
2017-Mar-17 09:33N 37°57' E 120°48'82711635.8
2017-Mar-17 09:29N 24°20' E 118°13'8 8.8
2017-Mar-17 08:33N 24°24' E 118°05'6 5.2
2017-Mar-17 07:25N 24°24' E 117°58'83324.6
2017-Mar-15 21:33N 38°04' E 120°50'7 7.3
2017-Mar-15 20:33N 37°57' E 120°49'5 5.3
2017-Mar-15 19:33N 37°52' E 120°45'  

Dump ship's entire track history